25 | 09 | 2018

Daten Vortag

Wetterdaten von 10m Höhe gemessen, Station 2

Datum / Zeit Intervall min Luftfeuchte % Temperatur °C absolut Luftdruck hPa Wind m/s Windbö m/s Richtung Relative Luftdruck hPa Taupunkt °C Windchill °C Niederschlag mm
24-09-2018 00:12 5 83 10.7 1009.4 17.3 23.4 NW 1012.9 7.9 5.2 0.0
24-09-2018 00:16 5 83 10.5 1009.4 19.4 27.0 NW 1012.9 7.7 4.3 0.0
24-09-2018 00:21 5 82 10.5 1009.6 18.4 22.0 NW 1013.1 7.6 4.6 0.0
24-09-2018 00:26 5 79 10.6 1009.6 18.4 22.0 NW 1013.1 7.1 4.8 0.0
24-09-2018 00:31 5 78 10.5 1009.6 23.4 34.2 NW 1013.1 6.8 3.3 0.0
24-09-2018 00:36 5 77 10.5 1009.6 17.3 23.4 NW 1013.1 6.7 5.0 0.0
24-09-2018 00:41 5 77 10.6 1009.7 18.4 24.5 NWW 1013.2 6.7 4.8 0.0
24-09-2018 00:46 5 78 10.5 1009.7 23.4 27.0 NW 1013.2 6.8 3.3 0.0
24-09-2018 00:51 5 78 10.3 1009.9 20.9 23.4 NW 1013.4 6.6 3.7 0.0
24-09-2018 00:56 5 78 10.4 1009.9 23.4 28.1 NW 1013.4 6.7 3.2 0.0
24-09-2018 01:01 5 77 10.4 1009.9 19.4 28.1 NW 1013.4 6.6 4.2 0.0
24-09-2018 01:06 5 77 10.4 1009.8 19.4 24.5 NW 1013.3 6.6 4.2 0.0
24-09-2018 01:11 5 77 10.4 1009.9 18.4 20.9 NW 1013.4 6.6 4.5 0.0
24-09-2018 01:16 5 77 10.5 1010.1 18.4 24.5 NW 1013.6 6.7 4.6 0.0
24-09-2018 01:21 5 77 10.4 1009.9 19.4 25.6 NW 1013.4 6.6 4.2 0.0
24-09-2018 01:26 5 76 10.5 1010.3 27.0 35.6 NW 1013.8 6.5 2.6 0.0
24-09-2018 01:31 5 76 10.7 1010.2 17.3 23.4 NW 1013.7 6.7 5.2 0.0
24-09-2018 01:36 5 77 10.5 1010.2 18.4 25.6 NW 1013.7 6.7 4.6 0.0
24-09-2018 01:41 5 77 10.4 1010.3 24.5 28.1 NW 1013.8 6.6 3.0 0.0
24-09-2018 01:46 5 76 10.7 1010.2 23.4 29.5 NW 1013.7 6.7 3.6 0.0
24-09-2018 01:51 5 75 10.6 1010.3 18.4 25.6 NW 1013.8 6.4 4.8 0.0
24-09-2018 01:56 5 75 10.5 1010.5 20.9 27.0 NW 1014.0 6.3 4.0 0.0
24-09-2018 02:01 5 75 10.5 1010.5 22.0 27.0 NW 1014.0 6.3 3.7 0.0
24-09-2018 02:06 5 75 10.5 1010.6 22.0 27.0 NW 1014.1 6.3 3.7 0.0
24-09-2018 02:11 5 75 10.4 1010.6 18.4 23.4 NW 1014.1 6.2 4.5 0.0
24-09-2018 02:16 5 75 10.5 1010.6 24.5 30.6 NWW 1014.1 6.3 3.1 0.0
24-09-2018 02:21 5 74 10.5 1010.7 22.0 25.6 NW 1014.2 6.1 3.7 0.0
24-09-2018 02:26 5 74 10.6 1010.9 24.5 29.5 NW 1014.4 6.2 3.2 0.0
24-09-2018 02:31 5 75 10.4 1010.9 20.9 24.5 NW 1014.4 6.2 3.8 0.0
24-09-2018 02:36 5 76 10.4 1011.0 18.4 22.0 NW 1014.5 6.4 4.5 0.0
24-09-2018 02:41 5 77 10.6 1011.1 15.8 20.9 NW 1014.6 6.7 5.6 0.0
24-09-2018 02:46 5 77 10.8 1011.2 18.4 23.4 W 1014.7 6.9 5.0 0.0
24-09-2018 02:51 5 78 10.8 1011.4 27.0 30.6 W 1014.9 7.1 3.0 0.0
24-09-2018 02:56 5 80 10.5 1011.3 33.1 39.2 W 1014.8 7.2 1.6 0.0
24-09-2018 03:01 5 84 9.8 1011.2 23.4 28.1 NW 1014.7 7.2 2.4 0.3
24-09-2018 03:06 5 83 10.0 1011.4 24.5 31.7 W 1014.9 7.3 2.4 0.3
24-09-2018 03:11 5 84 9.7 1011.6 36.7 40.3 W 1015.1 7.1 -0.1 0.6
24-09-2018 03:16 5 85 9.4 1011.6 24.5 29.5 W 1015.1 7.0 1.6 1.2
24-09-2018 03:21 5 86 9.3 1011.5 39.2 50.0 W 1015.0 7.1 -0.9 1.8
24-09-2018 03:26 5 88 9.3 1011.5 23.4 29.5 W 1015.0 7.4 1.8 1.8
24-09-2018 03:31 5 89 9.3 1011.6 17.3 22.0 NW 1015.1 7.6 3.5 1.8
24-09-2018 03:36 5 89 9.4 1012.0 19.4 24.5 W 1015.5 7.7 2.9 2.4
24-09-2018 03:41 5 91 9.0 1011.9 22.0 25.6 W 1015.4 7.6 1.7 3.3
24-09-2018 03:46 5 93 9.2 1011.9 24.5 34.2 W 1015.4 8.1 1.4 3.6
24-09-2018 03:51 5 89 9.6 1011.9 24.5 31.7 W 1015.4 7.9 1.9 3.9
24-09-2018 03:56 5 88 9.3 1011.9 22.0 27.0 NW 1015.4 7.4 2.1 3.9
24-09-2018 04:01 5 87 9.5 1012.2 22.0 25.6 NW 1015.7 7.5 2.4 3.6
24-09-2018 04:06 5 85 9.3 1012.2 20.9 27.0 NW 1015.7 6.9 2.4 3.6
24-09-2018 04:11 5 85 9.3 1012.3 17.3 20.9 W 1015.8 6.9 3.5 3.3
24-09-2018 04:16 5 86 9.2 1012.1 20.9 33.1 NW 1015.6 7.0 2.3 3.6
24-09-2018 04:21 5 87 8.5 1012.2 27.0 30.6 NW 1015.7 6.5 -0.1 3.0
24-09-2018 04:26 5 89 8.8 1012.3 14.8 18.4 NW 1015.8 7.1 3.8 3.0
24-09-2018 04:31 5 91 9.0 1012.3 20.9 24.5 W 1015.8 7.6 2.0 3.9
24-09-2018 04:36 5 93 9.3 1012.3 25.6 29.5 W 1015.8 8.2 1.3 3.3
24-09-2018 04:41 5 90 9.3 1012.3 18.4 24.5 W 1015.8 7.8 3.1 2.4
24-09-2018 04:46 5 90 9.3 1012.6 18.4 23.4 W 1016.1 7.8 3.1 2.1
24-09-2018 04:51 5 91 9.7 1012.6 24.5 28.1 W 1016.1 8.3 2.0 1.8
24-09-2018 04:56 5 89 9.8 1012.6 24.5 30.6 W 1016.1 8.1 2.2 2.1
24-09-2018 05:01 5 88 9.4 1012.9 28.1 31.7 W 1016.4 7.5 0.9 2.1
24-09-2018 05:06 5 88 9.5 1012.7 28.1 35.6 W 1016.2 7.6 1.0 2.1
24-09-2018 05:11 5 88 9.6 1012.7 27.0 31.7 NW 1016.2 7.7 1.4 2.1
24-09-2018 05:16 5 88 9.7 1012.7 25.6 31.7 W 1016.2 7.8 1.8 1.2
24-09-2018 05:21 5 88 9.7 1012.9 27.0 33.1 W 1016.4 7.8 1.5 1.2
24-09-2018 05:26 5 88 9.5 1012.9 24.5 28.1 N 1016.4 7.6 1.8 1.2
24-09-2018 05:31 5 88 9.4 1013.1 24.5 29.5 W 1016.6 7.5 1.6 0.3
24-09-2018 05:36 5 90 9.3 1013.0 27.0 30.6 W 1016.5 7.8 1.0 0.3
24-09-2018 05:41 5 90 9.6 1013.0 22.0 27.0 W 1016.5 8.1 2.5 0.3
24-09-2018 05:46 5 90 9.5 1013.1 22.0 25.6 NW 1016.6 8.0 2.4 0.3
24-09-2018 05:51 5 91 9.6 1013.1 17.3 19.4 W 1016.6 8.2 3.9 0.3
24-09-2018 05:56 5 91 9.8 1013.2 28.1 31.7 NW 1016.7 8.4 1.4 0.0
24-09-2018 06:01 5 90 9.9 1013.3 29.5 36.7 W 1016.8 8.3 1.3 0.0
24-09-2018 06:06 5 90 9.9 1013.4 29.5 36.7 W 1016.9 8.3 1.3 0.0
24-09-2018 06:11 5 88 10.0 1013.4 18.4 20.9 W 1016.9 8.1 4.0 0.0
24-09-2018 06:16 5 90 9.9 1013.4 19.4 24.5 NW 1016.9 8.3 3.6 0.0
24-09-2018 06:21 5 90 9.8 1013.5 17.3 20.9 W 1017.0 8.3 4.1 0.0
24-09-2018 06:26 5 91 9.9 1013.5 17.3 19.4 W 1017.0 8.5 4.2 0.0
24-09-2018 06:31 5 91 9.9 1013.6 18.4 20.9 NW 1017.1 8.5 3.9 0.0
24-09-2018 06:36 5 88 10.0 1013.6 12.2 18.4 NW 1017.1 8.1 6.2 0.0
24-09-2018 06:41 5 86 10.0 1013.6 18.4 23.4 NW 1017.1 7.8 4.0 0.0
24-09-2018 06:46 5 83 10.2 1013.7 27.0 34.2 NW 1017.2 7.5 2.2 0.0
24-09-2018 06:51 5 81 10.2 1013.7 22.0 27.0 NW 1017.2 7.1 3.3 0.0
24-09-2018 06:56 5 79 10.3 1013.9 23.4 28.1 NW 1017.4 6.8 3.1 0.0
24-09-2018 07:01 5 78 10.3 1013.9 24.5 31.7 NWW 1017.4 6.6 2.8 0.0
24-09-2018 07:06 5 78 10.3 1014.0 20.9 25.6 NW 1017.5 6.6 3.7 0.0
24-09-2018 07:11 5 79 10.2 1014.2 17.3 23.4 NW 1017.7 6.7 4.6 0.0
24-09-2018 07:16 5 80 10.2 1014.1 22.0 27.0 NW 1017.6 6.9 3.3 0.0
24-09-2018 07:21 5 79 10.3 1014.2 27.0 30.6 NW 1017.7 6.8 2.3 0.0
24-09-2018 07:26 5 79 10.3 1014.3 15.8 20.9 NW 1017.8 6.8 5.2 0.0
24-09-2018 07:31 5 79 10.4 1014.4 25.6 37.8 NW 1017.9 6.9 2.7 0.0
24-09-2018 07:36 5 78 10.5 1014.5 22.0 27.0 NW 1018.0 6.8 3.7 0.0
24-09-2018 07:41 5 79 10.4 1014.7 23.4 29.5 NW 1018.2 6.9 3.2 0.0
24-09-2018 07:46 5 77 10.7 1014.7 19.4 24.5 NW 1018.2 6.8 4.6 0.0
24-09-2018 07:51 5 77 10.8 1014.9 23.4 31.7 NW 1018.4 6.9 3.7 0.0
24-09-2018 07:56 5 77 10.8 1015.0 20.9 29.5 NW 1018.5 6.9 4.3 0.0
24-09-2018 08:01 5 75 11.0 1015.2 27.0 33.1 NW 1018.7 6.8 3.3 0.0
24-09-2018 08:06 5 75 11.1 1015.2 24.5 31.7 NW 1018.7 6.9 3.9 0.0
24-09-2018 08:11 5 74 11.3 1015.4 19.4 23.4 NW 1018.9 6.8 5.4 0.0
24-09-2018 08:16 5 73 11.3 1015.5 22.0 29.5 NWW 1019.0 6.7 4.7 0.0
24-09-2018 08:21 5 74 11.3 1015.5 19.4 23.4 NW 1019.0 6.8 5.4 0.0
24-09-2018 08:26 5 73 11.3 1015.5 25.6 41.8 NW 1019.0 6.7 3.9 0.0
24-09-2018 08:31 5 71 11.2 1015.8 34.2 39.2 NW 1019.3 6.2 2.4 0.0
24-09-2018 08:36 5 73 10.9 1015.9 33.1 40.3 NW 1019.4 6.3 2.1 0.0
24-09-2018 08:41 5 73 10.9 1015.9 28.1 33.1 NW 1019.4 6.3 2.9 0.0
24-09-2018 08:46 5 73 11.0 1016.0 24.5 29.5 NW 1019.5 6.4 3.8 0.0
24-09-2018 08:51 5 73 11.4 1016.1 24.5 33.1 NW 1019.6 6.7 4.3 0.0
24-09-2018 08:56 5 72 11.4 1016.3 17.3 24.5 NW 1019.8 6.5 6.1 0.0
24-09-2018 09:01 5 73 11.6 1016.5 30.6 36.7 NW 1020.0 6.9 3.5 0.0
24-09-2018 09:06 5 72 11.9 1016.5 29.5 36.7 NW 1020.0 7.0 4.1 0.0
24-09-2018 09:11 5 71 12.0 1016.6 28.1 37.8 NW 1020.1 6.9 4.4 0.0
24-09-2018 09:16 5 72 11.7 1016.7 25.6 30.6 NWW 1020.2 6.8 4.5 0.0
24-09-2018 09:21 5 74 11.6 1016.7 31.7 41.8 NW 1020.2 7.1 3.3 0.0
24-09-2018 09:26 5 72 11.8 1017.0 29.5 39.2 NW 1020.5 6.9 3.9 0.0
24-09-2018 09:31 5 72 11.9 1017.0 25.6 36.7 NW 1020.5 7.0 4.8 0.0
24-09-2018 09:36 5 69 12.1 1017.2 28.1 33.1 NW 1020.7 6.6 4.6 0.0
24-09-2018 09:41 5 70 12.2 1017.0 37.8 46.4 NW 1020.5 6.9 3.4 0.0
24-09-2018 09:46 5 66 12.2 1017.5 22.0 29.5 NW 1021.0 6.1 5.9 0.0
24-09-2018 09:51 5 65 12.1 1017.5 37.8 49.0 NW 1021.0 5.7 3.2 0.0
24-09-2018 09:56 5 66 12.1 1017.3 40.3 51.5 NWW 1020.8 6.0 3.0 0.0
24-09-2018 10:01 5 64 12.2 1017.6 36.7 46.4 NW 1021.1 5.6 3.5 0.0
24-09-2018 10:06 5 64 12.1 1017.7 36.7 50.0 NW 1021.2 5.5 3.3 0.0
24-09-2018 10:11 5 65 12.2 1017.7 42.8 50.0 NWW 1021.2 5.8 2.9 0.0
24-09-2018 10:16 5 64 12.3 1017.8 40.3 50.0 NW 1021.3 5.7 3.3 0.0
24-09-2018 10:21 5 63 12.2 1018.0 34.2 46.4 NW 1021.5 5.4 3.8 0.0
24-09-2018 10:26 5 64 12.3 1017.7 33.1 54.0 NWW 1021.2 5.7 4.1 0.0
24-09-2018 10:31 5 64 12.5 1018.0 33.1 45.4 NW 1021.5 5.9 4.4 0.0
24-09-2018 10:36 5 65 12.3 1018.1 24.5 30.6 NW 1021.6 5.9 5.5 0.0
24-09-2018 10:41 5 64 12.4 1018.4 41.8 50.0 NW 1021.9 5.8 3.3 0.0
24-09-2018 10:46 5 64 12.3 1018.3 29.5 36.7 NW 1021.8 5.7 4.6 0.0
24-09-2018 10:51 5 64 12.4 1018.4 40.3 47.9 NW 1021.9 5.8 3.4 0.0
24-09-2018 10:56 5 64 12.5 1018.6 30.6 39.2 NW 1022.1 5.9 4.7 0.0
24-09-2018 11:01 5 63 12.4 1018.5 35.6 45.4 NW 1022.0 5.6 3.9 0.0
24-09-2018 11:06 5 63 12.6 1018.6 42.8 50.0 NW 1022.1 5.8 3.5 0.0
24-09-2018 11:11 5 64 12.3 1018.7 33.1 42.8 NW 1022.2 5.7 4.1 0.0
24-09-2018 11:16 5 64 12.4 1018.7 29.5 40.3 NW 1022.2 5.8 4.7 0.0
24-09-2018 11:21 5 64 12.8 1018.9 36.7 45.4 NW 1022.4 6.2 4.3 0.0
24-09-2018 11:26 5 62 12.4 1018.9 41.8 52.6 NW 1022.4 5.3 3.3 0.0
24-09-2018 11:31 5 62 12.7 1018.9 41.8 49.0 NW 1022.4 5.6 3.7 0.0
24-09-2018 11:36 5 62 12.8 1018.9 35.6 47.9 NW 1022.4 5.7 4.5 0.0
24-09-2018 11:41 5 62 12.9 1019.1 41.8 49.0 NW 1022.6 5.8 4.0 0.0
24-09-2018 11:46 5 63 12.8 1019.3 34.2 39.2 NW 1022.8 5.9 4.6 0.0
24-09-2018 11:51 5 61 12.9 1019.2 39.2 52.6 NW 1022.7 5.6 4.2 0.0
24-09-2018 11:56 5 61 12.9 1019.2 42.8 50.0 NW 1022.7 5.6 3.9 0.0
24-09-2018 12:01 5 61 13.0 1019.5 41.8 49.0 NW 1023.0 5.7 4.1 0.0
24-09-2018 12:06 5 60 13.0 1019.5 35.6 40.3 NW 1023.0 5.4 4.7 0.0
24-09-2018 12:11 5 60 13.1 1019.5 39.2 49.0 NW 1023.0 5.5 4.5 0.0
24-09-2018 12:16 5 60 13.2 1019.5 41.8 55.1 NW 1023.0 5.6 4.4 0.0
24-09-2018 12:21 5 61 13.3 1019.6 27.0 31.7 NW 1023.1 6.0 6.4 0.0
24-09-2018 12:26 5 62 13.2 1019.7 39.2 46.4 NW 1023.2 6.1 4.6 0.0
24-09-2018 12:31 5 59 13.1 1019.7 37.8 49.0 NW 1023.2 5.3 4.7 0.0
24-09-2018 12:36 5 61 13.4 1019.7 25.6 37.8 NW 1023.2 6.0 6.8 0.0
24-09-2018 12:44 5 60 13.7 1019.7 34.2 42.8 NW 1023.2 6.1 5.9 0.0
24-09-2018 12:49 5 61 12.6 1019.9 33.1 40.3 NW 1023.4 5.3 4.5 0.0
24-09-2018 12:54 5 64 12.9 1020.1 22.0 28.1 NW 1023.6 6.3 6.8 0.0
24-09-2018 12:59 5 62 13.3 1020.1 36.7 47.9 NWW 1023.6 6.2 5.1 0.0
24-09-2018 13:04 5 60 13.0 1020.1 34.2 42.8 NW 1023.6 5.4 4.9 0.0
24-09-2018 13:09 5 58 13.0 1020.2 40.3 49.0 NWW 1023.7 4.9 4.3 0.0
24-09-2018 13:14 5 57 13.5 1020.4 35.6 54.0 NWW 1023.9 5.2 5.5 0.0
24-09-2018 13:19 5 59 13.4 1020.4 30.6 40.3 NW 1023.9 5.6 6.0 0.0
24-09-2018 13:24 5 62 13.1 1020.4 27.0 34.2 NW 1023.9 6.0 6.1 0.0
24-09-2018 13:29 5 62 12.5 1020.5 34.2 41.8 NW 1024.0 5.4 4.2 0.0
24-09-2018 13:34 5 64 12.6 1020.6 28.1 33.1 W 1024.1 6.0 5.2 0.0
24-09-2018 13:39 5 63 12.4 1020.6 35.6 39.2 NW 1024.1 5.6 3.9 0.0
24-09-2018 13:44 5 65 12.0 1020.7 29.5 37.8 W 1024.2 5.6 4.2 0.0
24-09-2018 13:49 5 66 12.1 1020.9 27.0 34.2 NW 1024.4 6.0 4.8 0.0
24-09-2018 13:54 5 66 12.3 1020.9 33.1 39.2 NW 1024.4 6.1 4.1 0.0
24-09-2018 13:59 5 65 12.2 1020.9 24.5 33.1 NW 1024.4 5.8 5.4 0.0
24-09-2018 14:04 5 63 12.8 1020.9 35.6 43.9 W 1024.4 5.9 4.5 0.0
24-09-2018 14:09 5 60 13.2 1021.0 33.1 40.3 NW 1024.5 5.6 5.3 0.0
24-09-2018 14:14 5 60 13.3 1020.8 29.5 35.6 NW 1024.3 5.7 6.0 0.0
24-09-2018 14:19 5 60 12.7 1020.8 31.7 42.8 NW 1024.3 5.2 4.8 0.0
24-09-2018 14:24 5 61 12.6 1021.0 33.1 41.8 NW 1024.5 5.3 4.5 0.0
24-09-2018 14:29 5 61 12.8 1020.9 30.6 43.9 NW 1024.4 5.5 5.1 0.0
24-09-2018 14:34 5 57 13.0 1020.9 37.8 42.8 NWW 1024.4 4.7 4.5 0.0
24-09-2018 14:39 5 55 12.6 1021.0 35.6 42.8 NW 1024.5 3.8 4.2 0.0
24-09-2018 14:44 5 59 12.3 1021.1 22.0 28.1 NW 1024.6 4.5 6.0 0.0
24-09-2018 14:49 5 62 12.2 1021.2 24.5 27.0 NW 1024.7 5.1 5.4 0.0
24-09-2018 14:54 5 63 12.0 1021.4 36.7 39.2 W 1024.9 5.2 3.2 0.0
24-09-2018 14:59 5 65 11.0 1021.9 41.8 47.9 W 1025.4 4.7 1.2 0.0
24-09-2018 15:04 5 71 9.7 1021.6 34.2 39.2 W 1025.1 4.7 0.3 0.0
24-09-2018 15:09 5 72 9.8 1021.4 24.5 28.1 W 1024.9 5.0 2.2 0.0
24-09-2018 15:14 5 73 10.6 1021.4 29.5 33.1 W 1024.9 6.0 2.3 0.0
24-09-2018 15:19 5 70 11.7 1021.3 23.4 29.5 W 1024.8 6.4 4.9 0.0
24-09-2018 15:24 5 67 11.6 1021.4 23.4 27.0 W 1024.9 5.7 4.8 0.0
24-09-2018 15:29 5 71 11.2 1021.4 19.4 24.5 NW 1024.9 6.2 5.2 0.0
24-09-2018 15:34 5 74 10.9 1021.9 20.9 30.6 NW 1025.4 6.5 4.5 0.0
24-09-2018 15:39 5 78 9.2 1022.2 23.4 30.6 NW 1025.7 5.6 1.6 0.9
24-09-2018 15:44 5 85 8.4 1022.1 20.9 24.5 NW 1025.6 6.0 1.2 1.2
24-09-2018 15:49 5 84 9.4 1021.8 13.3 17.3 W 1025.3 6.8 5.1 1.2
24-09-2018 15:54 5 81 10.3 1021.8 11.2 17.3 NW 1025.3 7.2 7.0 1.2
24-09-2018 15:59 5 77 11.1 1021.6 13.3 14.8 W 1025.1 7.2 7.1 1.2
24-09-2018 16:04 5 77 11.3 1021.6 14.8 18.4 NW 1025.1 7.4 6.8 1.2
24-09-2018 16:09 5 77 11.3 1021.5 14.8 18.4 NW 1025.0 7.4 6.8 1.2
24-09-2018 16:14 5 80 10.8 1021.7 14.8 18.4 W 1025.2 7.5 6.2 1.2
24-09-2018 16:19 5 81 10.5 1021.8 24.5 30.6 NWW 1025.3 7.4 3.1 1.5
24-09-2018 16:24 5 83 9.8 1021.8 17.3 22.0 W 1025.3 7.1 4.1 1.5
24-09-2018 16:29 5 84 9.6 1022.0 19.4 25.6 NW 1025.5 7.0 3.2 2.4
24-09-2018 16:34 5 86 8.2 1021.9 18.4 24.5 NW 1025.4 6.0 1.7 3.6
24-09-2018 16:39 5 86 8.3 1021.8 14.8 19.4 NW 1025.3 6.1 3.2 3.0
24-09-2018 16:44 5 86 8.6 1022.0 14.8 20.9 NW 1025.5 6.4 3.5 2.7
24-09-2018 16:49 5 87 8.8 1021.9 13.3 15.8 NWW 1025.4 6.8 4.3 2.7
24-09-2018 16:54 5 87 9.9 1022.0 18.4 22.0 NW 1025.5 7.9 3.9 2.7
24-09-2018 16:59 5 83 11.0 1021.9 20.9 23.4 W 1025.4 8.2 4.6 2.7
24-09-2018 17:04 5 80 10.9 1021.8 22.0 24.5 W 1025.3 7.6 4.2 2.7
24-09-2018 17:09 5 76 11.0 1022.0 14.8 20.9 NW 1025.5 6.9 6.4 2.7
24-09-2018 17:14 5 76 11.1 1022.6 25.6 30.6 NW 1026.1 7.0 3.7 2.7
24-09-2018 17:19 5 75 8.8 1022.3 25.6 30.6 NW 1025.8 4.6 0.6 3.0
24-09-2018 17:24 5 78 8.1 1022.8 33.1 39.2 NW 1026.3 4.5 -1.8 3.9
24-09-2018 17:29 5 85 7.5 1022.6 27.0 34.2 N 1026.1 5.2 -1.5 3.6
24-09-2018 17:34 5 87 7.9 1022.3 14.8 19.4 NW 1025.8 5.9 2.7 3.0
24-09-2018 17:39 5 87 8.6 1022.4 17.3 27.0 N 1025.9 6.6 2.6 2.7
24-09-2018 17:44 5 85 8.8 1022.4 9.7 13.3 NW 1025.9 6.4 6.1 2.7
24-09-2018 17:49 5 85 8.6 1022.5 12.2 14.8 NWW 1026.0 6.2 4.6 2.7
24-09-2018 17:54 5 86 8.5 1022.6 8.6 11.2 NWW 1026.1 6.3 6.4 2.7
24-09-2018 17:59 5 87 8.5 1022.4 14.8 18.4 W 1025.9 6.5 3.4 2.7
24-09-2018 18:04 5 85 9.1 1022.6 15.8 20.9 NW 1026.1 6.7 3.7 2.7
24-09-2018 18:09 5 85 9.1 1022.5 15.8 20.9 NW 1026.0 6.7 3.7 2.7
24-09-2018 18:14 5 84 9.3 1022.4 18.4 24.5 W 1025.9 6.7 3.1 2.7
24-09-2018 18:19 5 82 9.6 1022.6 18.4 23.4 NW 1026.1 6.7 3.5 2.1
24-09-2018 18:24 5 81 9.5 1022.6 15.8 19.4 NW 1026.1 6.4 4.2 1.2
24-09-2018 18:29 5 81 9.5 1022.6 15.8 18.4 W 1026.1 6.4 4.2 0.6
24-09-2018 18:34 5 81 9.5 1022.5 19.4 25.6 NW 1026.0 6.4 3.1 0.0
24-09-2018 18:39 5 80 9.8 1022.6 20.9 24.5 W 1026.1 6.5 3.0 0.0
24-09-2018 18:44 5 78 10.0 1022.6 15.8 20.9 W 1026.1 6.4 4.8 0.0
24-09-2018 18:49 5 79 9.8 1022.7 13.3 17.3 W 1026.2 6.3 5.5 0.0
24-09-2018 18:54 5 78 9.9 1022.6 20.9 24.5 NW 1026.1 6.3 3.2 0.0
24-09-2018 18:59 5 75 10.1 1022.6 15.8 19.4 W 1026.1 5.9 4.9 0.0
24-09-2018 19:04 5 73 10.2 1023.0 20.9 28.1 NW 1026.5 5.6 3.6 0.0
24-09-2018 19:09 5 79 8.1 1023.1 23.4 27.0 NWW 1026.6 4.7 0.2 0.9
24-09-2018 19:14 5 84 8.7 1023.2 28.1 35.6 W 1026.7 6.2 -0.1 1.2
24-09-2018 19:19 5 81 9.1 1023.2 29.5 36.7 NW 1026.7 6.0 0.2 1.2
24-09-2018 19:24 5 81 8.9 1023.3 27.0 33.1 W 1026.8 5.8 0.4 1.2
24-09-2018 19:29 5 82 8.8 1023.5 18.4 22.0 NW 1027.0 5.9 2.5 1.2
24-09-2018 19:34 5 83 8.9 1023.6 22.0 27.0 NW 1027.1 6.2 1.6 1.2
24-09-2018 19:39 5 83 9.1 1023.5 17.3 22.0 NW 1027.0 6.4 3.2 1.2
24-09-2018 19:44 5 84 9.0 1023.7 17.3 20.9 W 1027.2 6.5 3.1 1.2
24-09-2018 19:49 5 85 8.9 1023.7 14.8 18.4 W 1027.2 6.5 3.9 1.2
24-09-2018 19:54 5 86 8.8 1023.8 13.3 17.3 NW 1027.3 6.6 4.3 1.2
24-09-2018 19:59 5 85 9.0 1023.8 13.3 19.4 W 1027.3 6.6 4.6 1.2
24-09-2018 20:04 5 85 9.1 1023.8 19.4 23.4 W 1027.3 6.7 2.6 1.2
24-09-2018 20:09 5 85 9.3 1023.8 15.8 18.4 W 1027.3 6.9 4.0 0.3
24-09-2018 20:14 5 85 9.3 1023.9 19.4 22.0 W 1027.4 6.9 2.8 0.0
24-09-2018 20:19 5 85 9.4 1023.9 20.9 25.6 W 1027.4 7.0 2.5 0.0
24-09-2018 20:24 5 85 9.6 1023.9 19.4 20.9 W 1027.4 7.2 3.2 0.0
24-09-2018 20:29 5 84 9.7 1024.0 13.3 15.8 NW 1027.5 7.1 5.4 0.0
24-09-2018 20:34 5 84 9.6 1024.1 14.8 17.3 W 1027.6 7.0 4.7 0.0
24-09-2018 20:39 5 85 9.4 1024.3 14.8 17.3 W 1027.8 7.0 4.5 0.0
24-09-2018 20:44 5 86 9.4 1024.4 20.9 27.0 NW 1027.9 7.2 2.5 0.0
24-09-2018 20:49 5 85 9.8 1024.3 15.8 20.9 W 1027.8 7.4 4.6 0.0
24-09-2018 20:54 5 85 9.7 1024.4 18.4 27.0 NW 1027.9 7.3 3.6 0.0
24-09-2018 20:59 5 85 9.7 1024.5 18.4 22.0 W 1028.0 7.3 3.6 0.0
24-09-2018 21:04 5 84 10.0 1024.4 20.9 25.6 NW 1027.9 7.4 3.3 0.0
24-09-2018 21:09 5 84 9.8 1024.5 18.4 23.4 W 1028.0 7.2 3.8 0.0
24-09-2018 21:14 5 84 9.9 1024.7 17.3 19.4 W 1028.2 7.3 4.2 0.0
24-09-2018 21:19 5 82 9.7 1024.8 20.9 25.6 NW 1028.3 6.8 2.9 0.0
24-09-2018 21:24 5 76 9.9 1024.9 17.3 23.4 NW 1028.4 5.9 4.2 0.0
24-09-2018 21:29 5 71 10.0 1024.8 31.7 41.8 NW 1028.3 5.0 1.1 0.0
24-09-2018 21:34 5 68 10.1 1024.9 25.6 30.6 NW 1028.4 4.5 2.3 0.0
24-09-2018 21:39 5 67 10.3 1025.1 25.6 31.7 W 1028.6 4.5 2.6 0.0
24-09-2018 21:44 5 67 10.1 1025.1 24.5 28.1 NW 1028.6 4.3 2.6 0.0
24-09-2018 21:49 5 67 10.2 1025.2 18.4 25.6 NW 1028.7 4.4 4.3 0.0
24-09-2018 21:54 5 67 10.1 1025.4 18.4 20.9 NW 1028.9 4.3 4.1 0.0
24-09-2018 21:59 5 69 9.9 1025.3 15.8 20.9 NW 1028.8 4.5 4.7 0.0
24-09-2018 22:04 5 70 9.9 1025.4 19.4 25.6 NW 1028.9 4.7 3.6 0.0
24-09-2018 22:09 5 70 10.0 1025.2 17.3 20.9 NW 1028.7 4.8 4.3 0.0
24-09-2018 22:14 5 73 9.7 1025.6 15.8 22.0 NW 1029.1 5.1 4.5 0.0
24-09-2018 22:19 5 74 9.6 1025.5 15.8 20.9 NW 1029.0 5.2 4.3 0.0
24-09-2018 22:24 5 75 9.4 1025.6 18.4 30.6 NW 1029.1 5.2 3.3 0.0
24-09-2018 22:29 5 75 9.5 1025.6 20.9 29.5 NW 1029.1 5.3 2.7 0.0
24-09-2018 22:34 5 75 9.5 1025.7 14.8 19.4 NW 1029.2 5.3 4.6 0.0
24-09-2018 22:39 5 75 9.5 1025.9 22.0 25.6 NW 1029.4 5.3 2.4 0.0
24-09-2018 22:44 5 75 9.5 1025.8 15.8 19.4 NW 1029.3 5.3 4.2 0.0
24-09-2018 22:49 5 75 9.5 1025.9 13.3 18.4 NW 1029.4 5.3 5.2 0.0
24-09-2018 22:54 5 75 9.7 1025.9 17.3 23.4 NWW 1029.4 5.5 4.0 0.0
24-09-2018 22:59 5 75 9.5 1026.0 15.8 19.4 NW 1029.5 5.3 4.2 0.0
24-09-2018 23:04 5 75 9.5 1026.2 18.4 23.4 NW 1029.7 5.3 3.4 0.0
24-09-2018 23:09 5 76 9.7 1026.2 15.8 19.4 NW 1029.7 5.7 4.5 0.0
24-09-2018 23:14 5 76 9.6 1026.3 18.4 22.0 NW 1029.8 5.6 3.5 0.0
24-09-2018 23:19 5 76 9.6 1026.4 15.8 20.9 NWW 1029.9 5.6 4.3 0.0
24-09-2018 23:24 5 77 9.6 1026.3 14.8 25.6 NW 1029.8 5.8 4.7 0.0
24-09-2018 23:29 5 78 9.5 1026.4 22.0 25.6 NW 1029.9 5.9 2.4 0.0
24-09-2018 23:34 5 78 9.5 1026.5 13.3 17.3 NW 1030.0 5.9 5.2 0.0
24-09-2018 23:39 5 78 9.5 1026.5 13.3 19.4 NW 1030.0 5.9 5.2 0.0
24-09-2018 23:44 5 78 9.5 1026.6 18.4 20.9 NW 1030.1 5.9 3.4 0.0
24-09-2018 23:49 5 78 9.3 1026.7 12.2 19.4 NW 1030.2 5.7 5.4 0.0
24-09-2018 23:54 5 78 9.2 1026.8 12.2 14.8 NW 1030.3 5.6 5.3 0.0
24-09-2018 23:59 5 79 9.1 1026.8 11.2 12.2 NW 1030.3 5.7 5.7 0.0

                                                                                          Tabelle: 08 : 00 UHR

STATIONHÖHELUFTD.TEMP.T-MinT-MaxU%RR1RR12SSSDDFFFXWetter+WolkenBöen
UFS TW Ems 0 ------ --- --- --- --- ---- --- --- -- --- --- --- ---
UFS Deutsche Bucht 0 1024.2 13.1 10.9 13.6 61 ---- --- --- NW 58 --- --- ---
Helgoland 4 1024.2 11.9 9.5 12.7 60 0.0 3 --- NW 46 84   Sturmböen
List/Sylt 26 1021.4 11.0 8.7 11.5 65 0.0 4 0 NW 50 80 --- Sturmböen
Schleswig 43 1021.5 8.7 7.0 9.2 78 0.0 0 0 W 20 36 bewölkt ---
Leuchtturm Kiel 5 1020.0 10.6 10.1 12.0 71 ---- --- --- NW 55 73 --- Sturmböen
Kiel 27 1021.1 8.2 7.6 9.8 78 0.0 0 --- W 14 29 --- ---
Fehmarn 3 1018.7 11.5 11.4 12.9 65 0.0 0 --- NW 59 82 --- Sturmböen
Arkona 42 1014.2 11.3 9.2 12.8 73 0.0 2 --- NW 48 67 --- Sturmböen
Norderney 11 1025.3 12.6 8.8 13.3 63 0.1 2 --- NW 56 78   Sturmböen
Leuchtt. Alte Weser 32 1023.4 12.6 9.0 13.4 62 ---- --- --- NW 58 --- --- ---
Cuxhaven 5 1023.5 11.7 9.0 12.8 64 0.5 3 --- NW 42 64 Regen Windböen
Hamburg-Flh. 11 1023.0 7.7 7.1 10.5 79 0.2 0 0 W 14 31 Regenschauer ---
Schwerin 59 1020.2 8.7 8.2 10.2 73 0.0 0 --- W 23 42 wolkenlos ---
Rostock 4 1017.7 11.5 10.5 13.5 67 0.0 1 --- NW 54 69 --- Sturmböen
Greifswald 2 1015.5 9.4 9.0 11.2 80 0.1 1 0 W 29 --- Regenschauer ---
Emden 0 1026.3 9.7 8.6 11.3 76 0.8 2 --- W 22 43 Regen ---
Bremen-Flh. 5 1025.1 6.9 6.4 9.4 88 0.2 6 0 W 17 23 Regenschauer ---
Lüchow 17 1022.4 8.0 7.2 9.5 80 0.0 1 --- W 19 33 --- ---
Marnitz 81 1019.9 7.4 6.8 10.5 81 0.0 0 --- NW 19 35 wolkenlos ---
Waren 70 1018.5 8.1 7.3 11.1 81 0.0 8 --- W 21 35 --- ---
Neuruppin 38 1019.7 7.4 7.0 9.5 85 0.0 3 --- W 12 35 wolkenlos ---
Angermünde 56 1017.3 7.1 6.8 9.8 88 0.0 2 --- W 28 41 wolkenlos ---
Münster/Osnabr.-Flh. 48 1028.8 5.2 4.9 9.4 93 0.0 0 0 W 10 13 heiter ---
Hannover-Flh. 59 1025.8 7.2 7.0 9.0 89 0.3 3 0 W 24 41 Regenschauer ---
Magdeburg 76 1023.4 8.3 7.9 9.2 79 ---- --- --- W 15 42 Regen ---
Potsdam 81 1020.4 7.3 7.0 9.1 89 0.0 2 0 W 31 53 heiter Windböen
Berlin-Tegel 37 1019.6 7.7 7.1 9.7 85 0.0 3 0 W 27 43 heiter ---
Berlin-Tempelhof 48 1019.7 7.9 7.6 9.7 83 0.0 2 --- W 25 41 --- ---
Berlin-Dahlem 51 1019.7 7.7 7.3 9.3 --- ---- 3 0 W 25 --- heiter ---
Lindenberg 91 1019.3 7.8 7.6 9.2 85 0.0 4 0 W 24 40 heiter ---
Düsseldorf-Flh. 45 1031.1 7.1 6.7 9.7 89 0.0 1 0 W 13 18 heiter ---
Essen 150 1030.9 6.1 5.9 8.7 96 0.0 1 --- W 8 14 wolkenlos ---
Kahler Asten 839 ------ 3.1 3.0 4.1 96 0.0 4 --- NW 35 57 --- Windböen
Bad Lippspringe 157 1028.7 5.4 4.8 8.8 99 0.0 1 --- - 0 5 --- ---
Fritzlar 174 1028.8 6.8 6.2 9.0 84 ---- 0 0 S 4 --- heiter ---
Brocken 1142 ------ 0.5 0.2 1.7 100 ---- 8 0 NW 46 69 Schneeschauer Sturmböen
Leipzig-Flh. 142 1024.0 7.9 --- --- --- 0.0 1 0 W 20 34 heiter ---
Dresden-Flh. 227 1022.5 8.1 7.4 11.7 84 0.0 5 0 W 27 46 Regenschauer ---
Cottbus 69 1019.8 7.9 7.5 10.9 84 0.0 7 --- W 16 35 wolkenlos ---
Görlitz 238 1020.3 7.9 6.9 10.7 83 0.0 10 0 W 23 41 bewölkt ---
Aachen 231 1032.4 6.5 5.8 8.5 92 0.0 1 --- W 13 16 --- ---
Nürburg 485 1032.4 4.6 4.3 7.2 93 0.0 1 --- W 8 14 --- ---
Köln/Bonn-Flh. 92 1031.5 5.7 5.3 9.2 97 0.0 2 0 W 7 13 Nebel ---
Gießen/Wettenberg 203 1030.2 6.6 6.1 10.7 89 0.0 0 --- W 13 18 wolkenlos ---
Wasserkuppe 921 ------ 2.4 2.4 5.8 100 0.0 3 0 NW 24 38 leichter Regen ---
Meiningen 450 1028.0 6.3 5.8 9.5 83 0.0 1 --- NW 20 39 --- ---
Erfurt 316 1026.7 7.3 6.6 8.7 88 0.0 5 0 W 21 28 Regenschauer ---
Gera 311 1025.3 7.4 6.7 10.0 82 0.0 3 --- W 22 36 --- ---
Fichtelberg 1213 ------ 0.8 0.5 9.5 98 ---- --- 0 W 62 86 Nebel Sturmböen
Trier 265 1033.2 4.9 4.8 10.6 98 0.0 0 --- SW 5 11 Nebel ---
Hahn-Flh. 497 1032.5 4.9 4.5 8.4 95 0.0 0 --- W 9 19 --- ---
Frankfurt/M-Flh. 112 1031.1 6.6 5.7 12.8 90 0.0 0 0 W 14 21 heiter ---
OF-Wetterpark 119 1030.5 7.7 6.4 11.5 86 0.0 0 --- W 10 15 wolkenlos ---
Würzburg 268 1030.2 7.1 6.7 13.7 87 0.0 0 --- NW 10 18 wolkenlos ---
Bamberg 239 1028.7 6.9 6.6 15.5 88 0.0 0 --- W 7 14 wolkenlos ---
Hof 567 1026.6 5.6 4.9 12.6 87 0.0 1 --- W 12 24 Regen ---
Weiden 438 1027.3 6.4 6.3 14.0 84 0.0 4 --- W 11 23   ---
Saarbrücken-Flh. 320 1032.9 5.3 4.4 12.0 98 0.0 0 0 W 4 11 Dunst oder flacher Nebel ---
Karlsruhe-Rheinst. 116 1032.3 7.3 6.1 16.3 98 0.0 0 --- SW 6 8 wolkenlos ---
Mannheim 96 1031.5 8.5 7.7 13.2 83 0.0 0 --- W 6 17 wolkenlos ---
Stuttgart-Flh. 371 1031.2 7.5 7.2 15.8 84 0.0 6 --- W 12 16 heiter ---
Öhringen 276 1031.3 7.2 7.0 14.0 91 0.0 4 --- W 7 10 --- ---
Nürnberg-Flh. 314 1028.9 7.1 7.0 14.9 88 0.0 4 0 W 22 31 heiter ---
Regensburg 366 1027.8 6.9 6.9 15.0 89 0.0 12 --- NW 6 25 wolkenlos ---
Straubing 351 1027.5 7.7 7.3 24.2 84 0.0 9 --- W 13 23 wolkenlos ---
Großer Arber 1436 ------ -0.8 -0.8 13.1 100 0.0 19 --- NW 44 70 gefrierender Nebel Sturmböen
Lahr 155 1032.2 9.3 9.1 16.3 83 0.0 1 --- NO 9 14 --- ---
Freudenstadt 797 ------ 4.3 3.9 12.1 98 0.0 12 --- NW 9 18 --- ---
Stötten 734 1030.9 4.8 4.7 12.5 98 0.0 15 --- NW 23 42 --- ---
Augsburg 462 1030.1 6.2 5.7 23.1 90 0.0 11 --- NW 12 19 wolkenlos ---
München-Flh. 444 1029.4 6.9 6.6 24.0 86 0.0 12 0 W 11 22 bewölkt ---
Fürstenzell 476 1027.0 6.9 6.7 17.2 90 0.0 6 --- W 18 42 --- ---
Feldberg/Schw. 1486 ------ 0.1 0.0 13.5 99 0.0 29 0 N 31 47 Nebel ---
Konstanz 443 1031.2 8.6 8.5 24.4 75 0.0 9 --- N 11 28 --- ---
Kempten 705 1030.7 6.3 6.3 21.6 89 0.1 18 --- NW 8 22 Regen ---
Oberstdorf 806 ------ 6.4 6.4 22.3 91 0.3 26 --- N 13 18 leichter Regen ---
Zugspitze 2960 ------ -6.7 -6.7 6.8 94 ---- --- 6 NW 18 39 gefrierender Nebel ---
Hohenpeißenberg 977 ------ --- --- --- --- ---- --- --- -- --- --- --- ---

                                                                                     Tabelle: 20 : 00 UHR

 

STATIONHÖHELUFTD.TEMP.T-MinT-MaxU%RR1RR12SSSDDFFFXWetter+WolkenBöen
UFS TW Ems 0 ------ --- --- --- --- ---- --- --- -- --- --- --- ---
UFS Deutsche Bucht 26 1031.8 12.7 11.1 13.4 48 ---- --- --- NW 50 --- --- ---
Helgoland 4 1031.6 11.9 9.6 13.2 53 0.0 2 --- NW 37 70   Sturmböen
List/Sylt 26 1029.4 9.4 7.8 12.6 74 0.6 7 0 NW 48 80 Regen Sturmböen
Schleswig 43 1029.1 7.4 7.3 13.0 77 0.0 0 0 W 18 32 gering bewölkt ---
Leuchtturm Kiel 5 1027.7 10.4 8.7 13.1 65 ---- --- --- NW 50 69 --- Sturmböen
Kiel 27 1028.5 7.9 7.2 13.3 72 0.0 1 --- W 19 41 wolkenlos ---
Fehmarn 3 1027.0 11.7 11.3 13.0 62 0.0 0 --- NW 53 69 --- Sturmböen
Arkona 42 1023.7 10.9 7.4 13.0 61 0.1 6 --- NW 16 74 Regen Sturmböen
Norderney 11 1032.5 11.6 10.2 13.9 66 0.0 2 --- N 52 81   Sturmböen
Leuchtt. Alte Weser 32 1030.9 12.3 9.8 13.1 59 ---- --- --- NW 54 --- --- ---
Cuxhaven 5 1030.9 11.7 8.5 13.0 56 0.0 5 --- NW 46 65 Regen Windböen
Hamburg-Flh 11 1030.1 8.4 7.8 13.5 73 0.0 0 0 W 18 44 Regenschauer ---
Schwerin 59 1028.1 9.0 8.6 14.0 60 0.0 0 --- NW 20 49 wolkenlos ---
Rostock 4 1025.9 11.9 9.6 13.7 60 0.0 2 --- NW 51 64 --- Windböen
Greifswald 2 1024.9 8.2 8.0 12.9 77 0.0 2 0 N 4 --- Regenschauer ---
Emden 0 1033.1 10.6 9.5 14.7 67 0.0 1 --- NW 11 32 leichter Regen ---
Bremen-Flh. 5 1031.9 10.4 6.8 13.5 67 0.0 5 0 NW 19 41 gering bewölkt ---
Lüchow 17 1029.4 9.4 7.9 13.6 67 0.0 0 --- W 9 32 --- ---
Marnitz 81 1027.7 9.1 7.4 14.1 62 0.0 0 --- NW 19 37 --- ---
Waren 70 1026.6 7.4 6.8 12.9 81 0.0 3 --- W 13 22 --- ---
Neuruppin 38 1027.1 10.0 7.4 13.3 54 0.0 2 --- NW 18 37 --- ---
Angermünde 56 1025.8 8.7 7.1 14.0 70 0.0 0 --- W 30 45 --- ---
Münster/Osnabr.-Flh. 48 1034.0 8.2 5.2 15.2 87 0.0 1 0 W 9 18 gering bewölkt ---
Hannover-Flh. 59 1031.8 7.3 6.6 13.4 90 0.0 6 0 NW 10 26 Regenschauer ---
Magdeburg 76 1030.0 8.7 8.3 13.4 77 ---- --- --- W 9 26 --- ---
Potsdam 81 1027.3 9.5 7.3 13.9 67 0.0 0 0 W 28 54 gering bewölkt Windböen
Berlin-Tegel 37 1026.8 10.3 7.7 13.5 62 0.0 1 0 W 17 36 gering bewölkt ---
Berlin-Tempelhof 48 1026.8 10.0 7.9 14.2 63 0.0 3 --- W 22 42 --- ---
Berlin-Dahlem 51 1026.9 10.0 7.6 13.7 --- ---- 0 0 NW 18 --- bewölkt ---
Lindenberg 91 1026.6 7.4 6.6 13.0 91 1.0 9 0 NW 9 23 Regenschauer ---
Düsseldorf-Flh. 45 1035.0 10.9 7.1 15.0 70 ---- 1 0 N 9 28 Regenschauer ---
Essen 150 1034.9 10.6 6.1 14.3 68 0.0 0 --- NW 12 26 wolkenlos ---
Kahler Asten 839 ------ 4.3 3.1 8.3 92 0.0 0 --- NW 25 50 --- Windböen
Bad Lippspringe 157 1033.7 7.3 5.4 14.6 92 0.7 1 --- W 7 46 Regen ---
Fritzlar 174 1033.5 9.1 6.7 14.7 74 ---- 0 0 W 14 --- gering bewölkt ---
Brocken 1142 ------ 0.4 -0.2 2.4 100 ---- 7 0 NW 53 82 Nebel Sturmböen
Leipzig-Flh. 142 1030.4 9.1 7.9 13.1 --- 0.0 0 0 W 22 35 bewölkt ---
Dresden-Flh. 227 1028.7 8.3 8.1 12.7 75 0.0 0 0 W 21 44 gering bewölkt ---
Cottbus 69 1026.7 9.1 7.8 14.1 80 0.0 1 --- W 6 23 --- ---
Görlitz 238 1026.8 8.5 7.1 12.5 74 0.0 2 0 W 22 42 Regenschauer ---
Aachen 231 1035.6 9.5 6.5 14.4 70 0.0 2 --- NW 10 19 wolkenlos ---
Nürburg 485 1035.6 7.6 4.6 12.1 78 0.0 --- --- NW 5 19 --- ---
Köln/Bonn-Flh. 92 1035.0 9.9 5.4 15.2 76 0.0 0 0 NW 9 24 gering bewölkt ---
Gießen/Wettenberg 203 1033.9 9.2 6.6 14.6 82 0.3 1 --- W 11 34 Regen ---
Wasserkuppe 921 ------ 4.5 2.4 7.6 79 0.0 0 0 NW 26 47 bewölkt ---
Meiningen 450 1033.7 6.5 6.2 12.1 94 0.4 1 --- NW 7 50 Regen ---
Erfurt 316 1032.5 7.5 7.0 12.9 82 0.0 --- 0 W 11 42 Regenschauer ---
Gera 311 1031.5 7.3 7.0 11.7 89 0.0 2 --- W 18 26 Regen ---
Fichtelberg 1213 ------ 0.5 -0.1 3.3 98 ---- --- --- W 48 74 Nebel Sturmböen
Trier 265 1035.5 10.7 4.9 14.6 73 0.0 0 --- N 6 27 Regen ---
Hahn-Flh. 497 1035.5 7.8 4.8 11.8 78 0.0 0 --- W 9 18 --- ---
Frankfurt/M-Flh. 112 1034.1 11.8 6.6 16.3 61 0.0 0 0 NW 18 33 Regenschauer ---
OF-Wetterpark 119 1033.7 12.5 7.7 16.2 62 0.0 0 --- W 11 28 wolkenlos ---
Würzburg 268 1033.3 11.9 7.1 15.4 54 0.0 0 --- NW 13 23 --- ---
Bamberg 239 1032.3 11.2 6.9 15.1 56 0.0 0 --- W 10 20 --- ---
Hof 567 1032.3 7.1 5.5 11.0 77 0.0 0 --- NW 9 51 Regen Windböen
Weiden 438 1031.9 9.0 6.4 12.4 59 0.0 0 --- W 10 26 --- ---
Saarbrücken-Flh. 320 1035.0 10.2 5.3 15.4 67 0.0 0 0 NW 9 15 gering bewölkt ---
Karlsruhe-Rheinst. 116 1034.3 13.0 6.9 16.8 52 0.0 0 --- NW 5 8 wolkenlos ---
Mannheim 96 1034.0 13.3 8.4 16.2 55 0.0 0 --- NW 11 20 --- ---
Stuttgart-Flh. 371 1033.8 10.9 7.5 13.7 53 0.0 0 --- NW 8 17 gering bewölkt ---
Öhringen 276 1034.0 10.8 7.2 14.8 63 0.0 0 --- W 8 17 wolkenlos ---
Nürnberg-Flh. 314 1032.8 10.0 7.1 14.0 61 0.0 0 0 W 12 26 gering bewölkt ---
Regensburg 366 1032.5 9.4 6.9 15.3 67 0.0 0 --- W 10 26 --- ---
Straubing 351 1032.5 9.6 7.7 13.7 64 0.0 0 --- W 10 18 --- ---
Großer Arber 1436 ------ 0.8 -0.7 1.8 89 0.0 1 --- W 44 59 --- Windböen
Lahr 155 1034.6 9.9 9.1 16.3 71 0.0 0 --- N 6 13 wolkenlos ---
Freudenstadt 797 ------ 7.1 4.2 11.1 67 0.0 0 --- N 4 11 --- ---
Stötten 734 1034.4 7.4 4.6 10.8 69 0.0 0 --- NW 8 12 --- ---
Augsburg 462 1034.5 6.2 6.2 13.1 73 0.0 0 --- W 6 15 wolkenlos ---
München-Flh. 444 1033.5 9.3 6.8 13.3 58 0.0 0 0 W 9 17 gering bewölkt ---
Fürstenzell 476 1032.0 8.8 6.8 12.1 67 0.0 0 --- W 13 24 --- ---
Feldberg/Schw. 1486 ------ 2.2 -0.2 4.0 84 0.0 0 0 N 12 17 --- ---
Konstanz 443 1033.8 10.7 8.6 15.6 61 0.0 0 --- NO 4 7 wolkenlos ---
Kempten 705 1034.8 6.5 6.1 12.9 78 0.0 0 --- - 0 10 wolkenlos ---
Oberstdorf 806 ------ 4.3 4.3 11.4 92 0.0 2 --- S 7 13 --- ---
Zugspitze 2960 ------ -8.5 -9.2 -6.6 93 ---- --- --- N 9 26 gefrierender Nebel ---
Hohenpeißenberg 977 ------ 6.1 3.5 9.6 64 0.0 0 0 N 11 18 gering bewölkt ---

 

  • Temperatur
  • Wetterzustand
  • Windrichtung und -geschwindigkeit
  • Luftdruck
  • relative Luftfeuchtigkeit
  • Sichtweite
  • Gesamtbedeckungsgrad
  • Niederschlag
  • Sonnenscheindauer

 Höhe:     m über NN
Luftd.:   auf Meereshöhe reduzierter Luftdruck in hPa
TEMP.:   Lufttemperatur in Grad Celsius
T-MIN:   Minimumtemperatur der Luft in 2m Höhe in Grad Celsius, von 18 UTC Vortag bis 06 UTC heute
T-MAX:  Maximumtemperatur der Luft in 2m Höhe in Grad Celsius, von 18 UTC Vortag bis 06 UTC heute
RR1:     Niederschlagsmenge, einstündig, mm ist gleich Liter pro
RR12:   Niederschlagsmenge, 12 stündig, 18 UTC Vortag bis 06 UTC heute in mm ist gleich Liter pro
SSS:     Gesamtschneehöhe
DD:      Windrichtung
FF:       Windgeschwindigkeit letztes 10-Minutenmittel in km/h
FX:       höchste Windspitze während der letzten Stunde in km/h
---:      Wert nicht vorhanden

 

2009-2018

Unwetterwarnungen

 

Radarbild          
aktueller Radarfilm Deutschland

Europa-Meteoalarm